sensor_id;sensor_type;location;lat;lon;timestamp;pressure;altitude;pressure_sealevel;temperature;humidity
71344;BME280;59146;43.850;25.948;2023-03-01T00:02:16;102232.13;;;4.99;86.98
71344;BME280;59146;43.850;25.948;2023-03-01T00:04:42;102205.56;;;4.82;86.91
71344;BME280;59146;43.850;25.948;2023-03-01T00:07:07;102215.84;;;4.88;87.10
71344;BME280;59146;43.850;25.948;2023-03-01T00:09:33;102222.72;;;4.92;86.83
71344;BME280;59146;43.850;25.948;2023-03-01T00:11:58;102222.66;;;4.98;87.17
71344;BME280;59146;43.850;25.948;2023-03-01T00:14:23;102178.22;;;4.54;87.82
71344;BME280;59146;43.850;25.948;2023-03-01T00:16:49;102146.50;;;4.34;88.12
71344;BME280;59146;43.850;25.948;2023-03-01T00:19:17;102173.06;;;4.54;88.48
71344;BME280;59146;43.850;25.948;2023-03-01T00:21:43;102206.50;;;4.75;89.38
71344;BME280;59146;43.850;25.948;2023-03-01T00:24:09;102200.41;;;4.79;89.14
71344;BME280;59146;43.850;25.948;2023-03-01T00:26:35;102155.00;;;4.48;89.32
71344;BME280;59146;43.850;25.948;2023-03-01T00:29:01;102154.16;;;4.46;89.59
71344;BME280;59146;43.850;25.948;2023-03-01T00:31:29;102165.28;;;4.55;89.45
71344;BME280;59146;43.850;25.948;2023-03-01T00:33:57;102163.59;;;4.51;89.88
71344;BME280;59146;43.850;25.948;2023-03-01T00:36:25;102197.91;;;4.70;89.51
71344;BME280;59146;43.850;25.948;2023-03-01T00:38:50;102198.81;;;4.69;89.56
71344;BME280;59146;43.850;25.948;2023-03-01T00:41:17;102196.22;;;4.66;90.01
71344;BME280;59146;43.850;25.948;2023-03-01T00:43:44;102170.34;;;4.66;89.98
71344;BME280;59146;43.850;25.948;2023-03-01T00:46:15;102141.94;;;4.60;89.87
71344;BME280;59146;43.850;25.948;2023-03-01T00:48:41;102182.25;;;4.82;89.08
71344;BME280;59146;43.850;25.948;2023-03-01T00:51:13;102169.41;;;4.73;89.69
71344;BME280;59146;43.850;25.948;2023-03-01T00:53:38;102168.50;;;4.78;89.97
71344;BME280;59146;43.850;25.948;2023-03-01T00:56:05;102189.81;;;5.02;89.26
71344;BME280;59146;43.850;25.948;2023-03-01T00:58:32;102189.88;;;4.96;89.04
71344;BME280;59146;43.850;25.948;2023-03-01T01:00:57;102177.13;;;4.79;89.14
71344;BME280;59146;43.850;25.948;2023-03-01T01:03:23;102199.41;;;4.94;89.78
71344;BME280;59146;43.850;25.948;2023-03-01T01:05:51;102126.41;;;4.60;90.59
71344;BME280;59146;43.850;25.948;2023-03-01T01:08:16;102143.44;;;4.80;89.81
71344;BME280;59146;43.850;25.948;2023-03-01T01:10:44;102156.53;;;4.67;88.87
71344;BME280;59146;43.850;25.948;2023-03-01T01:13:09;102200.19;;;5.00;90.29
71344;BME280;59146;43.850;25.948;2023-03-01T01:15:35;102179.56;;;4.94;90.22
71344;BME280;59146;43.850;25.948;2023-03-01T01:18:01;102190.75;;;4.95;90.35
71344;BME280;59146;43.850;25.948;2023-03-01T01:20:26;102152.91;;;4.83;89.29
71344;BME280;59146;43.850;25.948;2023-03-01T01:22:52;102092.16;;;4.34;89.53
71344;BME280;59146;43.850;25.948;2023-03-01T01:25:17;102101.00;;;4.15;90.27
71344;BME280;59146;43.850;25.948;2023-03-01T01:27:43;102167.84;;;4.55;91.35
71344;BME280;59146;43.850;25.948;2023-03-01T01:30:09;102148.09;;;4.47;91.12
71344;BME280;59146;43.850;25.948;2023-03-01T01:32:34;102178.16;;;4.60;91.27
71344;BME280;59146;43.850;25.948;2023-03-01T01:35:00;102103.47;;;4.25;91.17
71344;BME280;59146;43.850;25.948;2023-03-01T01:37:25;102135.25;;;4.38;91.73
71344;BME280;59146;43.850;25.948;2023-03-01T01:39:57;102098.38;;;4.18;92.11
71344;BME280;59146;43.850;25.948;2023-03-01T01:42:23;102152.28;;;4.60;91.92
71344;BME280;59146;43.850;25.948;2023-03-01T01:47:53;102121.72;;;4.09;91.90
71344;BME280;59146;43.850;25.948;2023-03-01T01:50:20;102090.72;;;4.06;92.74
71344;BME280;59146;43.850;25.948;2023-03-01T01:52:48;102113.75;;;4.30;93.23
71344;BME280;59146;43.850;25.948;2023-03-01T01:55:18;102034.03;;;3.87;92.66
71344;BME280;59146;43.850;25.948;2023-03-01T01:57:49;102071.69;;;4.14;92.35
71344;BME280;59146;43.850;25.948;2023-03-01T02:00:19;102146.34;;;4.49;92.59
71344;BME280;59146;43.850;25.948;2023-03-01T02:02:47;102115.28;;;4.50;93.48
71344;BME280;59146;43.850;25.948;2023-03-01T02:05:35;102141.78;;;4.75;92.92
71344;BME280;59146;43.850;25.948;2023-03-01T02:08:03;102095.44;;;4.51;92.05
71344;BME280;59146;43.850;25.948;2023-03-01T02:10:32;102039.13;;;3.93;92.03
71344;BME280;59146;43.850;25.948;2023-03-01T02:12:58;102111.22;;;4.27;92.73
71344;BME280;59146;43.850;25.948;2023-03-01T02:15:25;102072.47;;;4.19;93.93
71344;BME280;59146;43.850;25.948;2023-03-01T02:17:52;102054.34;;;4.24;93.50
71344;BME280;59146;43.850;25.948;2023-03-01T02:22:55;101988.47;;;3.71;92.51
71344;BME280;59146;43.850;25.948;2023-03-01T02:30:38;101997.91;;;3.75;92.12
71344;BME280;59146;43.850;25.948;2023-03-01T02:33:25;102087.16;;;4.17;92.84
71344;BME280;59146;43.850;25.948;2023-03-01T02:35:53;102101.69;;;4.30;93.58
71344;BME280;59146;43.850;25.948;2023-03-01T02:38:20;102050.09;;;4.15;92.95
71344;BME280;59146;43.850;25.948;2023-03-01T02:40:46;102086.22;;;4.27;92.65
71344;BME280;59146;43.850;25.948;2023-03-01T02:43:12;102106.78;;;4.38;92.55
71344;BME280;59146;43.850;25.948;2023-03-01T02:45:47;102004.03;;;3.68;92.77
71344;BME280;59146;43.850;25.948;2023-03-01T02:48:13;102053.75;;;3.94;93.40
71344;BME280;59146;43.850;25.948;2023-03-01T02:56:25;102115.56;;;4.25;92.77
71344;BME280;59146;43.850;25.948;2023-03-01T02:58:51;102108.59;;;4.31;93.41
71344;BME280;59146;43.850;25.948;2023-03-01T03:01:19;102123.91;;;4.52;92.57
71344;BME280;59146;43.850;25.948;2023-03-01T03:03:45;102128.28;;;4.46;92.02
71344;BME280;59146;43.850;25.948;2023-03-01T03:06:11;102074.41;;;3.99;92.12
71344;BME280;59146;43.850;25.948;2023-03-01T03:08:36;102132.63;;;4.42;92.74
71344;BME280;59146;43.850;25.948;2023-03-01T03:11:02;102097.34;;;4.35;92.53
71344;BME280;59146;43.850;25.948;2023-03-01T03:13:27;102030.47;;;3.96;91.80
71344;BME280;59146;43.850;25.948;2023-03-01T03:15:57;102048.53;;;4.00;92.14
71344;BME280;59146;43.850;25.948;2023-03-01T03:18:23;102112.00;;;4.35;92.25
71344;BME280;59146;43.850;25.948;2023-03-01T03:20:51;102104.25;;;4.32;92.95
71344;BME280;59146;43.850;25.948;2023-03-01T03:23:19;102070.78;;;4.15;92.42
71344;BME280;59146;43.850;25.948;2023-03-01T03:25:44;102124.88;;;4.41;92.33
71344;BME280;59146;43.850;25.948;2023-03-01T03:28:10;102047.69;;;3.98;92.13
71344;BME280;59146;43.850;25.948;2023-03-01T03:30:38;101932.78;;;3.43;92.38
71344;BME280;59146;43.850;25.948;2023-03-01T03:33:04;102134.06;;;4.67;92.57
71344;BME280;59146;43.850;25.948;2023-03-01T03:35:33;102133.31;;;4.59;91.91
71344;BME280;59146;43.850;25.948;2023-03-01T03:38:01;102055.34;;;4.09;92.10
71344;BME280;59146;43.850;25.948;2023-03-01T03:42:58;102117.75;;;4.61;92.70
71344;BME280;59146;43.850;25.948;2023-03-01T03:45:24;102100.53;;;4.57;92.62
71344;BME280;59146;43.850;25.948;2023-03-01T03:47:49;102110.06;;;4.56;91.69
71344;BME280;59146;43.850;25.948;2023-03-01T03:50:16;102050.94;;;4.19;92.00
71344;BME280;59146;43.850;25.948;2023-03-01T03:52:43;102058.84;;;4.03;92.36
71344;BME280;59146;43.850;25.948;2023-03-01T03:55:10;102112.81;;;4.40;93.16
71344;BME280;59146;43.850;25.948;2023-03-01T03:57:40;102072.72;;;3.92;93.67
71344;BME280;59146;43.850;25.948;2023-03-01T04:00:09;102058.97;;;3.88;93.91
71344;BME280;59146;43.850;25.948;2023-03-01T04:02:39;102138.81;;;4.26;93.76
71344;BME280;59146;43.850;25.948;2023-03-01T04:05:06;102054.69;;;3.87;93.74
71344;BME280;59146;43.850;25.948;2023-03-01T04:07:33;102135.53;;;4.04;94.21
71344;BME280;59146;43.850;25.948;2023-03-01T04:09:59;102078.81;;;3.83;94.22
71344;BME280;59146;43.850;25.948;2023-03-01T04:12:24;102126.03;;;4.07;94.50
71344;BME280;59146;43.850;25.948;2023-03-01T04:14:49;102132.00;;;4.16;94.60
71344;BME280;59146;43.850;25.948;2023-03-01T04:17:15;102113.97;;;4.10;94.39
71344;BME280;59146;43.850;25.948;2023-03-01T04:19:40;102139.72;;;4.21;94.46
71344;BME280;59146;43.850;25.948;2023-03-01T04:22:09;102117.28;;;4.23;94.31
71344;BME280;59146;43.850;25.948;2023-03-01T04:24:36;102064.09;;;3.94;93.56
71344;BME280;59146;43.850;25.948;2023-03-01T04:27:02;102125.88;;;4.29;93.99
71344;BME280;59146;43.850;25.948;2023-03-01T04:29:28;102105.34;;;4.08;93.85
71344;BME280;59146;43.850;25.948;2023-03-01T04:31:53;102113.03;;;4.19;93.49
71344;BME280;59146;43.850;25.948;2023-03-01T04:34:19;102083.88;;;4.01;93.09
71344;BME280;59146;43.850;25.948;2023-03-01T04:36:44;102006.69;;;3.56;93.34
71344;BME280;59146;43.850;25.948;2023-03-01T04:39:10;102120.66;;;4.31;93.13
71344;BME280;59146;43.850;25.948;2023-03-01T04:41:38;102118.09;;;4.29;93.12
71344;BME280;59146;43.850;25.948;2023-03-01T04:44:05;102136.94;;;4.42;93.07
71344;BME280;59146;43.850;25.948;2023-03-01T04:46:30;102023.88;;;3.63;93.33
71344;BME280;59146;43.850;25.948;2023-03-01T04:48:56;102112.13;;;4.21;94.02
71344;BME280;59146;43.850;25.948;2023-03-01T04:51:21;102065.78;;;4.00;93.55
71344;BME280;59146;43.850;25.948;2023-03-01T04:53:47;102072.72;;;3.95;93.36
71344;BME280;59146;43.850;25.948;2023-03-01T04:56:13;102128.44;;;4.29;93.77
71344;BME280;59146;43.850;25.948;2023-03-01T04:58:39;102113.09;;;4.07;93.91
71344;BME280;59146;43.850;25.948;2023-03-01T05:01:16;102083.03;;;3.96;93.86
71344;BME280;59146;43.850;25.948;2023-03-01T05:03:54;102113.72;;;4.34;94.75
71344;BME280;59146;43.850;25.948;2023-03-01T05:06:20;102130.94;;;4.40;93.39
71344;BME280;59146;43.850;25.948;2023-03-01T05:08:46;102075.31;;;3.93;93.05
71344;BME280;59146;43.850;25.948;2023-03-01T05:11:12;102144.59;;;4.51;93.99
71344;BME280;59146;43.850;25.948;2023-03-01T05:13:38;102007.28;;;3.88;93.28
71344;BME280;59146;43.850;25.948;2023-03-01T05:16:05;102135.00;;;4.62;92.57
71344;BME280;59146;43.850;25.948;2023-03-01T05:18:32;102063.88;;;4.19;92.51
71344;BME280;59146;43.850;25.948;2023-03-01T05:21:03;102114.47;;;4.47;92.30
71344;BME280;59146;43.850;25.948;2023-03-01T05:23:30;102105.94;;;4.36;92.38
71344;BME280;59146;43.850;25.948;2023-03-01T05:26:00;102116.22;;;4.43;92.89
71344;BME280;59146;43.850;25.948;2023-03-01T05:28:27;102138.44;;;4.67;92.83
71344;BME280;59146;43.850;25.948;2023-03-01T05:30:56;102146.22;;;4.64;92.38
71344;BME280;59146;43.850;25.948;2023-03-01T05:33:22;102064.88;;;4.06;91.94
71344;BME280;59146;43.850;25.948;2023-03-01T05:35:48;102070.09;;;3.99;92.87
71344;BME280;59146;43.850;25.948;2023-03-01T05:38:16;102123.94;;;4.46;93.75
71344;BME280;59146;43.850;25.948;2023-03-01T05:40:42;102087.06;;;4.28;93.08
71344;BME280;59146;43.850;25.948;2023-03-01T05:43:09;102087.84;;;4.36;92.36
71344;BME280;59146;43.850;25.948;2023-03-01T05:45:36;102051.22;;;3.91;92.34
71344;BME280;59146;43.850;25.948;2023-03-01T05:48:03;102135.25;;;4.38;92.63
71344;BME280;59146;43.850;25.948;2023-03-01T05:50:33;101943.91;;;3.47;93.20
71344;BME280;59146;43.850;25.948;2023-03-01T05:55:24;102130.81;;;4.50;92.84
71344;BME280;59146;43.850;25.948;2023-03-01T05:57:49;102135.13;;;4.51;92.80
71344;BME280;59146;43.850;25.948;2023-03-01T06:00:17;102145.34;;;4.65;93.52
71344;BME280;59146;43.850;25.948;2023-03-01T06:02:43;102106.63;;;4.53;93.40
71344;BME280;59146;43.850;25.948;2023-03-01T06:05:09;102121.97;;;4.72;92.59
71344;BME280;59146;43.850;25.948;2023-03-01T06:07:35;102136.72;;;4.64;91.72
71344;BME280;59146;43.850;25.948;2023-03-01T06:10:02;102076.81;;;4.19;92.05
71344;BME280;59146;43.850;25.948;2023-03-01T06:12:32;102140.19;;;4.65;93.35
71344;BME280;59146;43.850;25.948;2023-03-01T06:14:58;102059.50;;;4.24;92.83
71344;BME280;59146;43.850;25.948;2023-03-01T06:17:24;102131.59;;;4.57;92.26
71344;BME280;59146;43.850;25.948;2023-03-01T06:19:49;102034.88;;;3.86;92.15
71344;BME280;59146;43.850;25.948;2023-03-01T06:22:15;102141.13;;;4.55;92.96
71344;BME280;59146;43.850;25.948;2023-03-01T06:24:40;102117.88;;;4.52;92.90
71344;BME280;59146;43.850;25.948;2023-03-01T06:27:06;102123.06;;;4.52;92.09
71344;BME280;59146;43.850;25.948;2023-03-01T06:29:31;102085.34;;;4.27;91.95
71344;BME280;59146;43.850;25.948;2023-03-01T06:31:57;102129.97;;;4.50;92.04
71344;BME280;59146;43.850;25.948;2023-03-01T06:34:22;102088.72;;;4.32;93.26
71344;BME280;59146;43.850;25.948;2023-03-01T06:36:47;102140.03;;;4.75;92.75
71344;BME280;59146;43.850;25.948;2023-03-01T06:39:13;102072.47;;;4.22;91.85
71344;BME280;59146;43.850;25.948;2023-03-01T06:41:38;102084.53;;;4.22;92.15
71344;BME280;59146;43.850;25.948;2023-03-01T06:44:04;102068.28;;;4.08;92.30
71344;BME280;59146;43.850;25.948;2023-03-01T06:46:30;102106.91;;;4.27;92.96
71344;BME280;59146;43.850;25.948;2023-03-01T06:48:55;102110.31;;;4.31;92.88
71344;BME280;59146;43.850;25.948;2023-03-01T06:51:21;102058.03;;;3.98;92.93
71344;BME280;59146;43.850;25.948;2023-03-01T06:53:46;102124.78;;;4.50;93.48
71344;BME280;59146;43.850;25.948;2023-03-01T06:56:12;102111.13;;;4.36;92.68
71344;BME280;59146;43.850;25.948;2023-03-01T06:58:37;102039.97;;;3.92;93.00
71344;BME280;59146;43.850;25.948;2023-03-01T07:01:09;102147.03;;;4.67;92.75
71344;BME280;59146;43.850;25.948;2023-03-01T07:03:34;102070.72;;;4.21;92.74
71344;BME280;59146;43.850;25.948;2023-03-01T07:06:00;102093.97;;;4.29;92.49
71344;BME280;59146;43.850;25.948;2023-03-01T07:08:26;102081.88;;;4.29;92.97
71344;BME280;59146;43.850;25.948;2023-03-01T07:10:55;102153.84;;;4.76;92.45
71344;BME280;59146;43.850;25.948;2023-03-01T07:13:21;102131.53;;;4.63;92.32
71344;BME280;59146;43.850;25.948;2023-03-01T07:15:46;102072.38;;;4.30;91.95
71344;BME280;59146;43.850;25.948;2023-03-01T07:18:12;102078.38;;;4.35;92.47
71344;BME280;59146;43.850;25.948;2023-03-01T07:20:37;102127.22;;;4.63;91.97
71344;BME280;59146;43.850;25.948;2023-03-01T07:23:02;102084.41;;;4.34;92.10
71344;BME280;59146;43.850;25.948;2023-03-01T07:25:28;102087.84;;;4.34;92.51
71344;BME280;59146;43.850;25.948;2023-03-01T07:27:53;102125.59;;;4.56;92.36
71344;BME280;59146;43.850;25.948;2023-03-01T07:30:20;102134.19;;;4.57;92.08
71344;BME280;59146;43.850;25.948;2023-03-01T07:32:46;102133.16;;;4.71;91.55
71344;BME280;59146;43.850;25.948;2023-03-01T07:35:12;102138.25;;;4.83;91.31
71344;BME280;59146;43.850;25.948;2023-03-01T07:37:37;102044.75;;;4.33;90.82
71344;BME280;59146;43.850;25.948;2023-03-01T07:40:03;102109.94;;;4.65;91.76
71344;BME280;59146;43.850;25.948;2023-03-01T07:42:28;102158.78;;;4.97;90.48
71344;BME280;59146;43.850;25.948;2023-03-01T07:44:54;102095.50;;;4.48;90.56
71344;BME280;59146;43.850;25.948;2023-03-01T07:47:19;102157.06;;;4.95;91.13
71344;BME280;59146;43.850;25.948;2023-03-01T07:49:44;102111.75;;;4.57;91.04
71344;BME280;59146;43.850;25.948;2023-03-01T07:52:11;102146.88;;;4.81;91.09
71344;BME280;59146;43.850;25.948;2023-03-01T07:54:37;102121.84;;;4.83;91.15
71344;BME280;59146;43.850;25.948;2023-03-01T07:57:03;102159.53;;;5.05;90.08
71344;BME280;59146;43.850;25.948;2023-03-01T07:59:28;101959.84;;;3.92;89.90
71344;BME280;59146;43.850;25.948;2023-03-01T08:01:58;102142.19;;;5.13;89.75
71344;BME280;59146;43.850;25.948;2023-03-01T08:04:23;102135.19;;;5.21;88.73
71344;BME280;59146;43.850;25.948;2023-03-01T08:06:51;102109.47;;;5.06;87.98
71344;BME280;59146;43.850;25.948;2023-03-01T08:09:16;102137.88;;;5.12;87.88
71344;BME280;59146;43.850;25.948;2023-03-01T08:11:42;102135.31;;;5.09;89.75
71344;BME280;59146;43.850;25.948;2023-03-01T08:14:07;102142.13;;;5.19;89.10
71344;BME280;59146;43.850;25.948;2023-03-01T08:16:33;102143.78;;;5.22;88.43
71344;BME280;59146;43.850;25.948;2023-03-01T08:19:07;102165.16;;;5.40;87.47
71344;BME280;59146;43.850;25.948;2023-03-01T08:21:33;102131.91;;;5.06;88.27
71344;BME280;59146;43.850;25.948;2023-03-01T08:24:00;102137.78;;;5.21;88.41
71344;BME280;59146;43.850;25.948;2023-03-01T08:26:26;102098.19;;;5.10;88.30
71344;BME280;59146;43.850;25.948;2023-03-01T08:28:51;102155.53;;;5.50;87.43
71344;BME280;59146;43.850;25.948;2023-03-01T08:31:21;102169.50;;;5.38;88.06
71344;BME280;59146;43.850;25.948;2023-03-01T08:33:48;102156.63;;;5.34;88.26
71344;BME280;59146;43.850;25.948;2023-03-01T08:36:17;102050.03;;;4.97;88.50
71344;BME280;59146;43.850;25.948;2023-03-01T08:38:43;102141.53;;;5.61;87.39
71344;BME280;59146;43.850;25.948;2023-03-01T08:41:08;102147.50;;;5.67;86.59
71344;BME280;59146;43.850;25.948;2023-03-01T08:43:34;102100.44;;;5.36;86.90
71344;BME280;59146;43.850;25.948;2023-03-01T08:45:59;102090.16;;;5.28;87.34
71344;BME280;59146;43.850;25.948;2023-03-01T08:48:25;102081.56;;;5.26;86.60
71344;BME280;59146;43.850;25.948;2023-03-01T08:50:52;102122.66;;;5.55;86.24
71344;BME280;59146;43.850;25.948;2023-03-01T08:53:17;102100.44;;;5.36;86.42
71344;BME280;59146;43.850;25.948;2023-03-01T08:55:43;102127.97;;;5.43;86.91
71344;BME280;59146;43.850;25.948;2023-03-01T08:58:08;102143.38;;;5.55;86.56
71344;BME280;59146;43.850;25.948;2023-03-01T09:00:33;102099.50;;;5.41;86.86
71344;BME280;59146;43.850;25.948;2023-03-01T09:02:59;102094.19;;;5.50;86.55
71344;BME280;59146;43.850;25.948;2023-03-01T09:05:25;102133.69;;;5.68;86.46
71344;BME280;59146;43.850;25.948;2023-03-01T09:07:50;102127.72;;;5.59;86.64
71344;BME280;59146;43.850;25.948;2023-03-01T09:10:16;102080.03;;;5.12;86.93
71344;BME280;59146;43.850;25.948;2023-03-01T09:12:41;102022.47;;;4.93;86.90
71344;BME280;59146;43.850;25.948;2023-03-01T09:15:07;102066.38;;;5.01;87.19
71344;BME280;59146;43.850;25.948;2023-03-01T09:17:32;102129.78;;;5.36;88.12
71344;BME280;59146;43.850;25.948;2023-03-01T09:19:58;102118.47;;;5.43;87.73
71344;BME280;59146;43.850;25.948;2023-03-01T09:22:24;102127.06;;;5.47;87.53
71344;BME280;59146;43.850;25.948;2023-03-01T09:24:50;102115.81;;;5.48;88.02
71344;BME280;59146;43.850;25.948;2023-03-01T09:27:15;102128.66;;;5.55;87.91
71344;BME280;59146;43.850;25.948;2023-03-01T09:29:44;102088.50;;;5.24;87.72
71344;BME280;59146;43.850;25.948;2023-03-01T09:32:09;102055.84;;;5.14;87.65
71344;BME280;59146;43.850;25.948;2023-03-01T09:34:35;102106.41;;;5.42;87.90
71344;BME280;59146;43.850;25.948;2023-03-01T09:37:20;102060.94;;;5.20;87.27
71344;BME280;59146;43.850;25.948;2023-03-01T09:39:46;101972.88;;;4.58;87.85
71344;BME280;59146;43.850;25.948;2023-03-01T09:42:12;102025.94;;;4.92;88.27
71344;BME280;59146;43.850;25.948;2023-03-01T09:47:16;102123.47;;;5.55;88.60
71344;BME280;59146;43.850;25.948;2023-03-01T09:49:43;102100.53;;;5.28;88.66
71344;BME280;59146;43.850;25.948;2023-03-01T09:55:20;102060.81;;;5.28;88.17
71344;BME280;59146;43.850;25.948;2023-03-01T09:57:53;102033.38;;;5.13;88.65
71344;BME280;59146;43.850;25.948;2023-03-01T10:00:36;102066.28;;;5.68;87.03
71344;BME280;59146;43.850;25.948;2023-03-01T10:09:05;101992.41;;;5.39;85.99
71344;BME280;59146;43.850;25.948;2023-03-01T10:11:40;102096.91;;;5.98;84.98
71344;BME280;59146;43.850;25.948;2023-03-01T10:14:22;102082.56;;;5.74;85.94
71344;BME280;59146;43.850;25.948;2023-03-01T10:19:46;102052.56;;;5.59;86.03
71344;BME280;59146;43.850;25.948;2023-03-01T10:22:15;102113.28;;;6.03;85.35
71344;BME280;59146;43.850;25.948;2023-03-01T10:24:43;102097.25;;;5.75;85.40
71344;BME280;59146;43.850;25.948;2023-03-01T10:29:48;102075.53;;;5.85;86.17
71344;BME280;59146;43.850;25.948;2023-03-01T10:32:17;102074.47;;;5.97;85.15
71344;BME280;59146;43.850;25.948;2023-03-01T10:34:43;102075.09;;;6.11;84.65
71344;BME280;59146;43.850;25.948;2023-03-01T10:37:17;102046.28;;;5.76;84.30
71344;BME280;59146;43.850;25.948;2023-03-01T10:42:37;102085.47;;;6.11;85.34
71344;BME280;59146;43.850;25.948;2023-03-01T10:48:13;102006.25;;;5.92;83.95
71344;BME280;59146;43.850;25.948;2023-03-01T10:50:41;102019.91;;;6.03;83.67
71344;BME280;59146;43.850;25.948;2023-03-01T10:53:24;102083.25;;;6.37;82.75
71344;BME280;59146;43.850;25.948;2023-03-01T10:56:09;102002.84;;;5.90;83.50
71344;BME280;59146;43.850;25.948;2023-03-01T10:58:37;102033.31;;;6.26;83.28
71344;BME280;59146;43.850;25.948;2023-03-01T11:01:25;102050.91;;;6.55;81.97
71344;BME280;59146;43.850;25.948;2023-03-01T11:04:12;102002.97;;;6.29;81.92
71344;BME280;59146;43.850;25.948;2023-03-01T11:06:40;101863.63;;;5.44;81.98
71344;BME280;59146;43.850;25.948;2023-03-01T11:09:20;102047.41;;;6.57;80.74
71344;BME280;59146;43.850;25.948;2023-03-01T11:11:46;102026.03;;;6.45;81.24
71344;BME280;59146;43.850;25.948;2023-03-01T11:14:21;102030.94;;;6.58;81.03
71344;BME280;59146;43.850;25.948;2023-03-01T11:16:49;101975.44;;;6.21;80.60
71344;BME280;59146;43.850;25.948;2023-03-01T11:19:23;101976.75;;;5.97;81.57
71344;BME280;59146;43.850;25.948;2023-03-01T11:21:59;102039.19;;;6.34;82.16
71344;BME280;59146;43.850;25.948;2023-03-01T11:24:32;102014.31;;;6.24;82.67
71344;BME280;59146;43.850;25.948;2023-03-01T11:27:02;102028.69;;;6.40;82.72
71344;BME280;59146;43.850;25.948;2023-03-01T11:29:38;102034.34;;;6.62;81.90
71344;BME280;59146;43.850;25.948;2023-03-01T11:32:08;102004.69;;;6.29;81.23
71344;BME280;59146;43.850;25.948;2023-03-01T11:34:48;102022.56;;;6.44;81.62
71344;BME280;59146;43.850;25.948;2023-03-01T11:37:26;102007.81;;;6.46;82.35
71344;BME280;59146;43.850;25.948;2023-03-01T11:40:00;102019.31;;;6.76;81.63
71344;BME280;59146;43.850;25.948;2023-03-01T11:57:20;101991.97;;;6.58;80.15
71344;BME280;59146;43.850;25.948;2023-03-01T12:05:02;101987.06;;;6.86;80.22
71344;BME280;59146;43.850;25.948;2023-03-01T12:07:35;101980.13;;;6.86;79.93
71344;BME280;59146;43.850;25.948;2023-03-01T12:10:32;101976.88;;;6.77;79.91
71344;BME280;59146;43.850;25.948;2023-03-01T12:13:21;101973.06;;;6.91;78.82
71344;BME280;59146;43.850;25.948;2023-03-01T12:19:05;101963.41;;;6.99;79.01
71344;BME280;59146;43.850;25.948;2023-03-01T12:24:29;101890.00;;;6.13;82.01
71344;BME280;59146;43.850;25.948;2023-03-01T12:33:09;101893.84;;;6.35;81.74
71344;BME280;59146;43.850;25.948;2023-03-01T12:38:45;101966.03;;;6.58;82.86
71344;BME280;59146;43.850;25.948;2023-03-01T12:47:28;101958.69;;;6.78;81.95
71344;BME280;59146;43.850;25.948;2023-03-01T12:49:37;101956.69;;;6.50;82.18
71344;BME280;59146;43.850;25.948;2023-03-01T12:52:14;101931.94;;;6.33;82.57
71344;BME280;59146;43.850;25.948;2023-03-01T12:54:42;101945.38;;;6.52;82.69
71344;BME280;59146;43.850;25.948;2023-03-01T13:00:35;101952.34;;;6.90;81.98
71344;BME280;59146;43.850;25.948;2023-03-01T13:03:20;101950.03;;;6.78;81.10
71344;BME280;59146;43.850;25.948;2023-03-01T13:11:22;101908.75;;;6.64;80.61
71344;BME280;59146;43.850;25.948;2023-03-01T13:13:48;101944.50;;;6.91;79.65
71344;BME280;59146;43.850;25.948;2023-03-01T13:19:12;101915.78;;;6.61;80.77
71344;BME280;59146;43.850;25.948;2023-03-01T13:21:39;101886.50;;;6.54;79.97
71344;BME280;59146;43.850;25.948;2023-03-01T13:24:32;101927.66;;;6.72;79.94
71344;BME280;59146;43.850;25.948;2023-03-01T13:27:10;101879.38;;;6.62;80.33
71344;BME280;59146;43.850;25.948;2023-03-01T13:29:56;101875.34;;;6.51;79.50
71344;BME280;59146;43.850;25.948;2023-03-01T13:32:35;101927.72;;;6.69;80.30
71344;BME280;59146;43.850;25.948;2023-03-01T13:37:51;101887.41;;;6.90;80.92
71344;BME280;59146;43.850;25.948;2023-03-01T13:42:55;101846.09;;;6.79;79.21
71344;BME280;59146;43.850;25.948;2023-03-01T13:45:22;101935.50;;;7.07;79.19
71344;BME280;59146;43.850;25.948;2023-03-01T13:48:02;101939.31;;;6.91;80.36
71344;BME280;59146;43.850;25.948;2023-03-01T13:50:33;101933.84;;;7.03;80.99
71344;BME280;59146;43.850;25.948;2023-03-01T13:53:05;101929.22;;;7.14;79.54
71344;BME280;59146;43.850;25.948;2023-03-01T13:55:42;101932.44;;;7.26;79.69
71344;BME280;59146;43.850;25.948;2023-03-01T13:58:28;101930.81;;;7.21;78.77
71344;BME280;59146;43.850;25.948;2023-03-01T14:01:00;101880.09;;;6.69;79.76
71344;BME280;59146;43.850;25.948;2023-03-01T14:03:26;101928.88;;;6.94;80.18
71344;BME280;59146;43.850;25.948;2023-03-01T14:06:08;101929.88;;;6.89;80.39
71344;BME280;59146;43.850;25.948;2023-03-01T14:08:35;101877.88;;;6.52;80.64
71344;BME280;59146;43.850;25.948;2023-03-01T14:19:33;101938.38;;;6.57;81.98
71344;BME280;59146;43.850;25.948;2023-03-01T14:24:49;101870.06;;;6.54;81.93
71344;BME280;59146;43.850;25.948;2023-03-01T14:27:15;101857.13;;;6.52;80.77
71344;BME280;59146;43.850;25.948;2023-03-01T14:29:41;101900.63;;;6.79;81.08
71344;BME280;59146;43.850;25.948;2023-03-01T14:32:21;101920.09;;;6.98;81.05
71344;BME280;59146;43.850;25.948;2023-03-01T14:34:49;101854.19;;;6.67;80.64
71344;BME280;59146;43.850;25.948;2023-03-01T14:39:51;101925.56;;;7.23;78.33
71344;BME280;59146;43.850;25.948;2023-03-01T14:42:19;101913.22;;;6.96;78.69
71344;BME280;59146;43.850;25.948;2023-03-01T14:44:47;101895.91;;;6.96;79.18
71344;BME280;59146;43.850;25.948;2023-03-01T14:47:19;101853.13;;;6.76;78.85
71344;BME280;59146;43.850;25.948;2023-03-01T14:49:50;101915.09;;;7.26;78.42
71344;BME280;59146;43.850;25.948;2023-03-01T14:52:27;101834.28;;;6.66;78.75
71344;BME280;59146;43.850;25.948;2023-03-01T14:54:55;101882.09;;;6.94;78.79